16  °C
Temperature
61  °F
Temperature
55  °F
 Dewpoint
13  °C
  Dewpoint
83  %
 Humidity
  Temperature
14  km/h
Wind Speed
8  kts
Wind Speed
9  mph
Wind Speed
4.0  m/s
Wind Speed
260°
Due West

Wind Speed
Partly Cloudy
Conditions
Pressure 1015.92 (hPa) - 30 (inHG)
Visibility 10.0 (km) - 6.2 (mi)

Sky Conditions
LGSA
Location Chania International 80 km (49.72 mi)
Metar :LGSA 230150Z 26008KT 9999 FEW020 16/13 Q1016
Sat 23rd November 04:50 am

Nearest Airport
https://www.checkwx.com/weather/LGSA
  Metar Aviation API Data Provided by https://www.checkwx.com/ Original CSS/SVG/PHP scripts by weather34.com © 2015-2019